FVIP weather

Impinge Airport
Impinge Ranch, Mashonaland Central Province, Zimbabwe

Public forecast

Using degrees Celsius for public forecast. Weather courtesy of forecast.io.

Closest aviation weather report (METAR) to Impinge Airport

Report is more than 6 hours old.

Closest report is Robert Gabriel Mugabe International Airport, 63.8 nm (118.1 km) SSE. Retrieved 2019/10/15 12:00 UTC (8 hours ago):

FVRG 151200Z 14015KT CAVOK 31/M01 Q1022 NOSIG

Closest aviation forecast (TAF) to Impinge Airport

Closest forecast is Robert Gabriel Mugabe International Airport, 63.8 nm (118.1 km) SSE. Retrieved 2019/10/15 18:00 UTC (2 hours ago):

TAF FVRG 151600Z 1518/1624 14012KT CAVOK